sensor_id;sensor_type;location;lat;lon;timestamp;temperature;humidity
17659;DHT22;8948;51.534;8.262;2022-07-06T00:00:32;17.90;53.10
17659;DHT22;8948;51.534;8.262;2022-07-06T00:05:33;17.70;53.80
17659;DHT22;8948;51.534;8.262;2022-07-06T00:10:33;17.70;53.90
17659;DHT22;8948;51.534;8.262;2022-07-06T00:15:34;17.80;53.60
17659;DHT22;8948;51.534;8.262;2022-07-06T00:20:34;17.80;54.00
17659;DHT22;8948;51.534;8.262;2022-07-06T00:25:35;17.60;54.60
17659;DHT22;8948;51.534;8.262;2022-07-06T00:30:36;17.50;54.90
17659;DHT22;8948;51.534;8.262;2022-07-06T00:35:36;17.50;55.30
17659;DHT22;8948;51.534;8.262;2022-07-06T00:40:37;17.40;55.90
17659;DHT22;8948;51.534;8.262;2022-07-06T00:45:38;17.50;55.50
17659;DHT22;8948;51.534;8.262;2022-07-06T00:50:39;17.60;55.50
17659;DHT22;8948;51.534;8.262;2022-07-06T00:55:40;17.50;55.80
17659;DHT22;8948;51.534;8.262;2022-07-06T01:00:40;17.50;56.00
17659;DHT22;8948;51.534;8.262;2022-07-06T01:05:45;17.50;55.90
17659;DHT22;8948;51.534;8.262;2022-07-06T01:10:45;17.30;56.80
17659;DHT22;8948;51.534;8.262;2022-07-06T01:15:46;17.20;57.40
17659;DHT22;8948;51.534;8.262;2022-07-06T01:20:47;17.10;57.80
17659;DHT22;8948;51.534;8.262;2022-07-06T01:25:47;17.10;58.10
17659;DHT22;8948;51.534;8.262;2022-07-06T01:30:48;17.10;58.30
17659;DHT22;8948;51.534;8.262;2022-07-06T01:35:49;17.00;58.30
17659;DHT22;8948;51.534;8.262;2022-07-06T01:40:50;16.90;58.80
17659;DHT22;8948;51.534;8.262;2022-07-06T01:45:50;16.80;59.20
17659;DHT22;8948;51.534;8.262;2022-07-06T01:50:51;16.80;58.90
17659;DHT22;8948;51.534;8.262;2022-07-06T01:55:51;16.50;59.70
17659;DHT22;8948;51.534;8.262;2022-07-06T02:00:52;16.50;59.80
17659;DHT22;8948;51.534;8.262;2022-07-06T02:05:53;16.50;58.90
17659;DHT22;8948;51.534;8.262;2022-07-06T02:10:53;16.40;59.20
17659;DHT22;8948;51.534;8.262;2022-07-06T02:15:54;16.40;59.40
17659;DHT22;8948;51.534;8.262;2022-07-06T02:20:54;16.30;59.40
17659;DHT22;8948;51.534;8.262;2022-07-06T02:25:55;16.30;59.30
17659;DHT22;8948;51.534;8.262;2022-07-06T02:30:56;16.30;59.40
17659;DHT22;8948;51.534;8.262;2022-07-06T02:35:56;16.20;59.50
17659;DHT22;8948;51.534;8.262;2022-07-06T02:40:57;16.30;59.60
17659;DHT22;8948;51.534;8.262;2022-07-06T02:45:57;16.20;60.20
17659;DHT22;8948;51.534;8.262;2022-07-06T02:50:58;16.10;60.40
17659;DHT22;8948;51.534;8.262;2022-07-06T02:55:59;16.10;60.50
17659;DHT22;8948;51.534;8.262;2022-07-06T03:00:59;16.60;64.30
17659;DHT22;8948;51.534;8.262;2022-07-06T03:06:00;16.90;60.50
17659;DHT22;8948;51.534;8.262;2022-07-06T03:11:01;17.00;60.00
17659;DHT22;8948;51.534;8.262;2022-07-06T03:16:01;17.20;59.20
17659;DHT22;8948;51.534;8.262;2022-07-06T03:21:02;17.40;60.50
17659;DHT22;8948;51.534;8.262;2022-07-06T03:26:03;17.50;59.50
17659;DHT22;8948;51.534;8.262;2022-07-06T03:31:04;17.40;59.60
17659;DHT22;8948;51.534;8.262;2022-07-06T03:36:05;17.40;59.50
17659;DHT22;8948;51.534;8.262;2022-07-06T03:41:05;17.50;58.20
17659;DHT22;8948;51.534;8.262;2022-07-06T03:46:06;17.50;59.40
17659;DHT22;8948;51.534;8.262;2022-07-06T03:51:07;17.50;58.80
17659;DHT22;8948;51.534;8.262;2022-07-06T03:56:07;17.70;59.40
17659;DHT22;8948;51.534;8.262;2022-07-06T04:01:27;17.60;58.70
17659;DHT22;8948;51.534;8.262;2022-07-06T04:06:28;17.50;59.60
17659;DHT22;8948;51.534;8.262;2022-07-06T04:11:28;17.30;58.80
17659;DHT22;8948;51.534;8.262;2022-07-06T04:16:30;17.10;59.20
17659;DHT22;8948;51.534;8.262;2022-07-06T04:21:30;17.20;59.60
17659;DHT22;8948;51.534;8.262;2022-07-06T04:26:31;16.90;57.70
17659;DHT22;8948;51.534;8.262;2022-07-06T04:31:31;16.30;59.40
17659;DHT22;8948;51.534;8.262;2022-07-06T04:36:32;16.10;59.70
17659;DHT22;8948;51.534;8.262;2022-07-06T04:41:32;15.70;60.80
17659;DHT22;8948;51.534;8.262;2022-07-06T04:46:33;15.60;61.10
17659;DHT22;8948;51.534;8.262;2022-07-06T04:51:34;15.70;61.50
17659;DHT22;8948;51.534;8.262;2022-07-06T04:56:34;15.70;60.90
17659;DHT22;8948;51.534;8.262;2022-07-06T05:01:35;15.70;61.40
17659;DHT22;8948;51.534;8.262;2022-07-06T05:06:35;15.60;61.40
17659;DHT22;8948;51.534;8.262;2022-07-06T05:11:36;15.50;61.60
17659;DHT22;8948;51.534;8.262;2022-07-06T05:16:37;15.60;61.40
17659;DHT22;8948;51.534;8.262;2022-07-06T05:21:38;15.60;61.50
17659;DHT22;8948;51.534;8.262;2022-07-06T05:26:38;15.50;61.70
17659;DHT22;8948;51.534;8.262;2022-07-06T05:31:39;15.40;61.70
17659;DHT22;8948;51.534;8.262;2022-07-06T05:36:40;15.50;61.50
17659;DHT22;8948;51.534;8.262;2022-07-06T05:41:40;15.50;61.50
17659;DHT22;8948;51.534;8.262;2022-07-06T05:46:41;15.40;62.30
17659;DHT22;8948;51.534;8.262;2022-07-06T05:51:41;15.70;61.90
17659;DHT22;8948;51.534;8.262;2022-07-06T05:56:42;15.90;60.70
17659;DHT22;8948;51.534;8.262;2022-07-06T06:01:43;16.20;60.20
17659;DHT22;8948;51.534;8.262;2022-07-06T06:06:43;16.30;59.70
17659;DHT22;8948;51.534;8.262;2022-07-06T06:11:44;16.30;60.10
17659;DHT22;8948;51.534;8.262;2022-07-06T06:16:44;16.50;59.80
17659;DHT22;8948;51.534;8.262;2022-07-06T06:21:45;16.60;59.50
17659;DHT22;8948;51.534;8.262;2022-07-06T06:26:46;17.00;58.90
17659;DHT22;8948;51.534;8.262;2022-07-06T06:31:46;17.10;58.30
17659;DHT22;8948;51.534;8.262;2022-07-06T06:36:47;17.00;58.30
17659;DHT22;8948;51.534;8.262;2022-07-06T06:41:48;17.10;58.30
17659;DHT22;8948;51.534;8.262;2022-07-06T06:46:51;17.20;58.50
17659;DHT22;8948;51.534;8.262;2022-07-06T06:51:52;17.20;57.60
17659;DHT22;8948;51.534;8.262;2022-07-06T06:56:53;17.30;57.80
17659;DHT22;8948;51.534;8.262;2022-07-06T07:01:53;17.40;56.90
17659;DHT22;8948;51.534;8.262;2022-07-06T07:06:54;17.60;56.80
17659;DHT22;8948;51.534;8.262;2022-07-06T07:11:54;18.40;53.70
17659;DHT22;8948;51.534;8.262;2022-07-06T07:16:55;18.30;52.60
17659;DHT22;8948;51.534;8.262;2022-07-06T07:21:56;18.00;52.60
17659;DHT22;8948;51.534;8.262;2022-07-06T07:26:56;17.90;53.10
17659;DHT22;8948;51.534;8.262;2022-07-06T07:31:57;17.70;54.10
17659;DHT22;8948;51.534;8.262;2022-07-06T07:36:57;17.90;54.10
17659;DHT22;8948;51.534;8.262;2022-07-06T07:41:58;18.30;52.70
17659;DHT22;8948;51.534;8.262;2022-07-06T07:46:59;18.30;52.80
17659;DHT22;8948;51.534;8.262;2022-07-06T07:51:59;18.50;52.50
17659;DHT22;8948;51.534;8.262;2022-07-06T07:57:00;18.60;52.10
17659;DHT22;8948;51.534;8.262;2022-07-06T08:02:00;18.80;52.60
17659;DHT22;8948;51.534;8.262;2022-07-06T08:07:01;19.00;51.20
17659;DHT22;8948;51.534;8.262;2022-07-06T08:12:02;19.10;51.30
17659;DHT22;8948;51.534;8.262;2022-07-06T08:17:03;19.20;51.10
17659;DHT22;8948;51.534;8.262;2022-07-06T08:22:04;19.10;50.90
17659;DHT22;8948;51.534;8.262;2022-07-06T08:27:07;19.20;50.50
17659;DHT22;8948;51.534;8.262;2022-07-06T08:32:07;19.60;50.30
17659;DHT22;8948;51.534;8.262;2022-07-06T08:37:08;19.60;50.30
17659;DHT22;8948;51.534;8.262;2022-07-06T08:42:09;19.60;49.60
17659;DHT22;8948;51.534;8.262;2022-07-06T08:47:11;19.40;48.90
17659;DHT22;8948;51.534;8.262;2022-07-06T08:52:12;19.20;49.10
17659;DHT22;8948;51.534;8.262;2022-07-06T08:57:14;18.90;50.20
17659;DHT22;8948;51.534;8.262;2022-07-06T09:02:15;18.50;49.60
17659;DHT22;8948;51.534;8.262;2022-07-06T09:07:17;18.40;50.60
17659;DHT22;8948;51.534;8.262;2022-07-06T09:12:18;18.20;50.40
17659;DHT22;8948;51.534;8.262;2022-07-06T09:17:18;18.20;51.80
17659;DHT22;8948;51.534;8.262;2022-07-06T09:27:27;18.70;51.40
17659;DHT22;8948;51.534;8.262;2022-07-06T09:32:27;19.10;50.80
17659;DHT22;8948;51.534;8.262;2022-07-06T09:37:29;19.30;49.90
17659;DHT22;8948;51.534;8.262;2022-07-06T09:42:32;19.10;50.10
17659;DHT22;8948;51.534;8.262;2022-07-06T09:47:32;19.00;50.40
17659;DHT22;8948;51.534;8.262;2022-07-06T09:52:37;19.10;50.20
17659;DHT22;8948;51.534;8.262;2022-07-06T09:57:37;19.10;50.10
17659;DHT22;8948;51.534;8.262;2022-07-06T10:02:38;19.20;49.60
17659;DHT22;8948;51.534;8.262;2022-07-06T10:07:40;19.30;49.60
17659;DHT22;8948;51.534;8.262;2022-07-06T10:12:43;19.20;49.30
17659;DHT22;8948;51.534;8.262;2022-07-06T10:17:46;19.00;48.60
17659;DHT22;8948;51.534;8.262;2022-07-06T10:22:48;18.80;48.80
17659;DHT22;8948;51.534;8.262;2022-07-06T10:27:51;18.90;49.50
17659;DHT22;8948;51.534;8.262;2022-07-06T10:32:52;19.30;49.20
17659;DHT22;8948;51.534;8.262;2022-07-06T10:38:07;19.60;47.60
17659;DHT22;8948;51.534;8.262;2022-07-06T10:43:09;19.70;45.50
17659;DHT22;8948;51.534;8.262;2022-07-06T10:53:21;21.30;44.10
17659;DHT22;8948;51.534;8.262;2022-07-06T10:58:47;21.90;42.60
17659;DHT22;8948;51.534;8.262;2022-07-06T11:09:00;21.70;43.00
17659;DHT22;8948;51.534;8.262;2022-07-06T11:19:11;21.30;42.80
17659;DHT22;8948;51.534;8.262;2022-07-06T11:24:17;21.00;44.20
17659;DHT22;8948;51.534;8.262;2022-07-06T11:29:20;22.50;40.80
17659;DHT22;8948;51.534;8.262;2022-07-06T11:34:26;22.40;40.10
17659;DHT22;8948;51.534;8.262;2022-07-06T11:39:33;23.40;41.80
17659;DHT22;8948;51.534;8.262;2022-07-06T11:44:35;24.50;36.50
17659;DHT22;8948;51.534;8.262;2022-07-06T11:49:38;23.80;37.40
17659;DHT22;8948;51.534;8.262;2022-07-06T11:54:40;23.00;37.40
17659;DHT22;8948;51.534;8.262;2022-07-06T11:59:41;22.40;37.50
17659;DHT22;8948;51.534;8.262;2022-07-06T12:04:44;22.20;38.30
17659;DHT22;8948;51.534;8.262;2022-07-06T12:09:47;22.00;39.80
17659;DHT22;8948;51.534;8.262;2022-07-06T12:14:48;22.20;38.60
17659;DHT22;8948;51.534;8.262;2022-07-06T12:19:53;21.80;39.20
17659;DHT22;8948;51.534;8.262;2022-07-06T12:24:54;21.80;39.70
17659;DHT22;8948;51.534;8.262;2022-07-06T12:30:11;21.80;39.60
17659;DHT22;8948;51.534;8.262;2022-07-06T12:35:12;22.70;38.80
17659;DHT22;8948;51.534;8.262;2022-07-06T12:40:14;23.10;38.40
17659;DHT22;8948;51.534;8.262;2022-07-06T12:45:15;22.80;39.10
17659;DHT22;8948;51.534;8.262;2022-07-06T12:50:16;23.60;36.80
17659;DHT22;8948;51.534;8.262;2022-07-06T12:55:16;24.20;35.90
17659;DHT22;8948;51.534;8.262;2022-07-06T13:00:17;24.80;35.40
17659;DHT22;8948;51.534;8.262;2022-07-06T13:05:18;24.30;35.50
17659;DHT22;8948;51.534;8.262;2022-07-06T13:10:27;24.00;36.30
17659;DHT22;8948;51.534;8.262;2022-07-06T13:15:30;24.30;34.90
17659;DHT22;8948;51.534;8.262;2022-07-06T13:20:32;23.60;36.30
17659;DHT22;8948;51.534;8.262;2022-07-06T13:25:33;23.10;36.40
17659;DHT22;8948;51.534;8.262;2022-07-06T13:30:33;22.90;36.60
17659;DHT22;8948;51.534;8.262;2022-07-06T13:35:34;23.10;36.40
17659;DHT22;8948;51.534;8.262;2022-07-06T13:40:34;23.40;37.00
17659;DHT22;8948;51.534;8.262;2022-07-06T13:45:36;23.40;37.00
17659;DHT22;8948;51.534;8.262;2022-07-06T13:50:37;24.10;36.50
17659;DHT22;8948;51.534;8.262;2022-07-06T13:55:38;24.70;35.00
17659;DHT22;8948;51.534;8.262;2022-07-06T14:00:39;25.30;34.60
17659;DHT22;8948;51.534;8.262;2022-07-06T14:05:39;24.70;34.40
17659;DHT22;8948;51.534;8.262;2022-07-06T14:10:40;24.50;36.10
17659;DHT22;8948;51.534;8.262;2022-07-06T14:15:40;25.00;33.10
17659;DHT22;8948;51.534;8.262;2022-07-06T14:20:41;25.30;34.20
17659;DHT22;8948;51.534;8.262;2022-07-06T14:25:42;24.70;34.70
17659;DHT22;8948;51.534;8.262;2022-07-06T14:30:44;24.10;35.70
17659;DHT22;8948;51.534;8.262;2022-07-06T14:35:47;23.60;34.80
17659;DHT22;8948;51.534;8.262;2022-07-06T14:40:48;23.70;35.50
17659;DHT22;8948;51.534;8.262;2022-07-06T14:45:50;24.10;36.30
17659;DHT22;8948;51.534;8.262;2022-07-06T14:50:50;24.50;34.90
17659;DHT22;8948;51.534;8.262;2022-07-06T14:55:51;24.90;34.30
17659;DHT22;8948;51.534;8.262;2022-07-06T15:00:52;25.30;34.20
17659;DHT22;8948;51.534;8.262;2022-07-06T15:05:52;25.60;32.20
17659;DHT22;8948;51.534;8.262;2022-07-06T15:10:53;25.60;34.40
17659;DHT22;8948;51.534;8.262;2022-07-06T15:15:54;25.50;33.60
17659;DHT22;8948;51.534;8.262;2022-07-06T15:20:54;24.90;34.00
17659;DHT22;8948;51.534;8.262;2022-07-06T15:25:55;24.80;33.90
17659;DHT22;8948;51.534;8.262;2022-07-06T15:30:56;24.70;34.00
17659;DHT22;8948;51.534;8.262;2022-07-06T15:35:56;24.50;34.00
17659;DHT22;8948;51.534;8.262;2022-07-06T15:40:57;23.90;34.80
17659;DHT22;8948;51.534;8.262;2022-07-06T15:46:02;23.70;35.70
17659;DHT22;8948;51.534;8.262;2022-07-06T15:51:03;24.10;35.40
17659;DHT22;8948;51.534;8.262;2022-07-06T15:56:04;24.20;34.90
17659;DHT22;8948;51.534;8.262;2022-07-06T16:01:04;24.00;35.10
17659;DHT22;8948;51.534;8.262;2022-07-06T16:06:05;23.80;35.60
17659;DHT22;8948;51.534;8.262;2022-07-06T16:11:06;24.70;34.60
17659;DHT22;8948;51.534;8.262;2022-07-06T16:16:07;24.50;34.70
17659;DHT22;8948;51.534;8.262;2022-07-06T16:21:08;24.10;35.00
17659;DHT22;8948;51.534;8.262;2022-07-06T16:26:08;24.50;36.50
17659;DHT22;8948;51.534;8.262;2022-07-06T16:31:09;25.20;35.30
17659;DHT22;8948;51.534;8.262;2022-07-06T16:36:10;25.10;34.20
17659;DHT22;8948;51.534;8.262;2022-07-06T16:41:12;24.40;34.90
17659;DHT22;8948;51.534;8.262;2022-07-06T16:46:14;24.20;35.40
17659;DHT22;8948;51.534;8.262;2022-07-06T16:51:14;23.70;36.20
17659;DHT22;8948;51.534;8.262;2022-07-06T16:56:15;23.20;36.90
17659;DHT22;8948;51.534;8.262;2022-07-06T17:01:15;23.30;37.00
17659;DHT22;8948;51.534;8.262;2022-07-06T17:06:16;23.20;36.80
17659;DHT22;8948;51.534;8.262;2022-07-06T17:11:17;23.00;37.80
17659;DHT22;8948;51.534;8.262;2022-07-06T17:16:17;23.10;37.10
17659;DHT22;8948;51.534;8.262;2022-07-06T17:21:18;23.10;37.30
17659;DHT22;8948;51.534;8.262;2022-07-06T17:26:19;22.80;37.60
17659;DHT22;8948;51.534;8.262;2022-07-06T17:31:20;22.80;38.30
17659;DHT22;8948;51.534;8.262;2022-07-06T17:36:20;22.90;38.10
17659;DHT22;8948;51.534;8.262;2022-07-06T17:41:21;23.00;38.00
17659;DHT22;8948;51.534;8.262;2022-07-06T17:46:22;23.00;38.30
17659;DHT22;8948;51.534;8.262;2022-07-06T17:51:22;23.00;38.20
17659;DHT22;8948;51.534;8.262;2022-07-06T17:56:23;22.80;38.50
17659;DHT22;8948;51.534;8.262;2022-07-06T18:01:24;22.70;38.90
17659;DHT22;8948;51.534;8.262;2022-07-06T18:06:25;22.70;39.00
17659;DHT22;8948;51.534;8.262;2022-07-06T18:11:25;22.50;39.40
17659;DHT22;8948;51.534;8.262;2022-07-06T18:16:27;22.40;39.50
17659;DHT22;8948;51.534;8.262;2022-07-06T18:21:27;22.30;39.70
17659;DHT22;8948;51.534;8.262;2022-07-06T18:26:28;22.30;40.00
17659;DHT22;8948;51.534;8.262;2022-07-06T18:31:29;22.20;40.00
17659;DHT22;8948;51.534;8.262;2022-07-06T18:36:29;22.30;40.30
17659;DHT22;8948;51.534;8.262;2022-07-06T18:41:31;22.40;40.50
17659;DHT22;8948;51.534;8.262;2022-07-06T18:46:31;22.30;40.70
17659;DHT22;8948;51.534;8.262;2022-07-06T18:51:32;22.30;41.00
17659;DHT22;8948;51.534;8.262;2022-07-06T18:56:34;22.30;40.90
17659;DHT22;8948;51.534;8.262;2022-07-06T19:01:35;22.20;41.30
17659;DHT22;8948;51.534;8.262;2022-07-06T19:06:36;22.10;41.50
17659;DHT22;8948;51.534;8.262;2022-07-06T19:11:36;22.00;41.70
17659;DHT22;8948;51.534;8.262;2022-07-06T19:16:38;22.00;41.70
17659;DHT22;8948;51.534;8.262;2022-07-06T19:21:38;21.80;41.90
17659;DHT22;8948;51.534;8.262;2022-07-06T19:26:39;21.90;41.80
17659;DHT22;8948;51.534;8.262;2022-07-06T19:31:40;21.70;42.20
17659;DHT22;8948;51.534;8.262;2022-07-06T19:36:40;21.60;42.20
17659;DHT22;8948;51.534;8.262;2022-07-06T19:41:42;21.60;43.00
17659;DHT22;8948;51.534;8.262;2022-07-06T19:46:45;21.60;43.80
17659;DHT22;8948;51.534;8.262;2022-07-06T19:51:46;21.50;45.40
17659;DHT22;8948;51.534;8.262;2022-07-06T19:56:47;21.40;45.70
17659;DHT22;8948;51.534;8.262;2022-07-06T20:01:47;21.30;46.20
17659;DHT22;8948;51.534;8.262;2022-07-06T20:06:49;21.20;46.30
17659;DHT22;8948;51.534;8.262;2022-07-06T20:11:49;21.00;46.30
17659;DHT22;8948;51.534;8.262;2022-07-06T20:16:50;21.00;47.10
17659;DHT22;8948;51.534;8.262;2022-07-06T20:21:53;21.00;48.10
17659;DHT22;8948;51.534;8.262;2022-07-06T20:26:53;20.80;48.20
17659;DHT22;8948;51.534;8.262;2022-07-06T20:31:54;20.60;49.20
17659;DHT22;8948;51.534;8.262;2022-07-06T20:36:55;20.50;50.20
17659;DHT22;8948;51.534;8.262;2022-07-06T20:41:55;20.40;49.10
17659;DHT22;8948;51.534;8.262;2022-07-06T20:46:56;20.30;49.60
17659;DHT22;8948;51.534;8.262;2022-07-06T20:51:56;20.30;49.10
17659;DHT22;8948;51.534;8.262;2022-07-06T20:56:57;20.20;49.10
17659;DHT22;8948;51.534;8.262;2022-07-06T21:01:59;20.20;50.30
17659;DHT22;8948;51.534;8.262;2022-07-06T21:06:59;20.30;50.50
17659;DHT22;8948;51.534;8.262;2022-07-06T21:12:00;20.30;51.00
17659;DHT22;8948;51.534;8.262;2022-07-06T21:17:00;20.20;51.30
17659;DHT22;8948;51.534;8.262;2022-07-06T21:22:01;20.20;51.20
17659;DHT22;8948;51.534;8.262;2022-07-06T21:27:02;20.20;52.00
17659;DHT22;8948;51.534;8.262;2022-07-06T21:32:03;20.20;51.70
17659;DHT22;8948;51.534;8.262;2022-07-06T21:37:04;20.20;52.00
17659;DHT22;8948;51.534;8.262;2022-07-06T21:42:05;20.10;51.80
17659;DHT22;8948;51.534;8.262;2022-07-06T21:47:05;20.10;51.70
17659;DHT22;8948;51.534;8.262;2022-07-06T21:52:06;20.00;52.00
17659;DHT22;8948;51.534;8.262;2022-07-06T21:57:07;20.00;51.70
17659;DHT22;8948;51.534;8.262;2022-07-06T22:02:08;19.90;52.10
17659;DHT22;8948;51.534;8.262;2022-07-06T22:07:08;19.90;52.20
17659;DHT22;8948;51.534;8.262;2022-07-06T22:12:09;19.80;51.80
17659;DHT22;8948;51.534;8.262;2022-07-06T22:17:09;19.80;51.70
17659;DHT22;8948;51.534;8.262;2022-07-06T22:22:11;19.80;51.20
17659;DHT22;8948;51.534;8.262;2022-07-06T22:27:11;19.80;50.90
17659;DHT22;8948;51.534;8.262;2022-07-06T22:32:12;19.80;50.80
17659;DHT22;8948;51.534;8.262;2022-07-06T22:37:13;19.70;50.90
17659;DHT22;8948;51.534;8.262;2022-07-06T22:42:13;19.50;50.60
17659;DHT22;8948;51.534;8.262;2022-07-06T22:47:14;19.50;50.70
17659;DHT22;8948;51.534;8.262;2022-07-06T22:52:14;19.50;50.40
17659;DHT22;8948;51.534;8.262;2022-07-06T22:57:15;19.50;50.30
17659;DHT22;8948;51.534;8.262;2022-07-06T23:02:15;19.40;50.90
17659;DHT22;8948;51.534;8.262;2022-07-06T23:07:16;19.50;50.70
17659;DHT22;8948;51.534;8.262;2022-07-06T23:12:17;19.30;50.60
17659;DHT22;8948;51.534;8.262;2022-07-06T23:17:17;19.30;50.90
17659;DHT22;8948;51.534;8.262;2022-07-06T23:22:18;19.30;50.70
17659;DHT22;8948;51.534;8.262;2022-07-06T23:27:18;19.30;50.60
17659;DHT22;8948;51.534;8.262;2022-07-06T23:32:19;19.20;50.60
17659;DHT22;8948;51.534;8.262;2022-07-06T23:37:20;19.00;50.80
17659;DHT22;8948;51.534;8.262;2022-07-06T23:42:20;19.10;50.80
17659;DHT22;8948;51.534;8.262;2022-07-06T23:47:21;19.10;51.30
17659;DHT22;8948;51.534;8.262;2022-07-06T23:52:22;19.10;51.30
17659;DHT22;8948;51.534;8.262;2022-07-06T23:57:22;19.10;51.20
